createdAt,value
2018-09-20T00:00:41.004Z,5.51
2018-09-20T00:01:41.478Z,5.53
2018-09-20T00:02:41.952Z,5.58
2018-09-20T00:03:42.416Z,5.60
2018-09-20T00:04:42.887Z,5.62
2018-09-20T00:05:43.359Z,5.64
2018-09-20T00:06:44.537Z,5.68
2018-09-20T00:07:44.302Z,5.70
2018-09-20T00:08:44.773Z,5.71
2018-09-20T00:09:45.245Z,5.72
2018-09-20T00:10:45.715Z,5.71
2018-09-20T00:11:46.189Z,5.65
2018-09-20T00:12:46.664Z,5.62
2018-09-20T00:13:47.133Z,5.60
2018-09-20T00:14:47.604Z,5.62
2018-09-20T00:15:48.079Z,5.65
2018-09-20T00:16:48.551Z,5.70
2018-09-20T00:17:49.024Z,5.69
2018-09-20T00:18:49.496Z,5.64
2018-09-20T00:19:49.970Z,5.63
2018-09-20T00:20:50.446Z,5.59
2018-09-20T00:21:50.921Z,5.56
2018-09-20T00:22:51.392Z,5.52
2018-09-20T00:23:51.864Z,5.49
2018-09-20T00:24:52.341Z,5.44
2018-09-20T00:25:52.821Z,5.42
2018-09-20T00:26:53.338Z,5.38
2018-09-20T00:27:53.763Z,5.32
2018-09-20T00:28:54.239Z,5.28
2018-09-20T00:29:54.712Z,5.26
2018-09-20T00:30:55.187Z,5.26
2018-09-20T00:31:55.659Z,5.24
2018-09-20T00:32:56.134Z,5.24
2018-09-20T00:33:56.609Z,5.26
2018-09-20T00:34:57.083Z,5.28
2018-09-20T00:35:57.557Z,5.29
2018-09-20T00:36:58.031Z,5.32
2018-09-20T00:37:58.505Z,5.31
2018-09-20T00:38:58.980Z,5.32
2018-09-20T00:39:59.452Z,5.33
2018-09-20T00:40:59.924Z,5.34
2018-09-20T00:42:00.400Z,5.34
2018-09-20T00:43:00.870Z,5.34
2018-09-20T00:44:01.345Z,5.36
2018-09-20T00:45:01.819Z,5.36
2018-09-20T00:46:02.290Z,5.37
2018-09-20T00:47:02.764Z,5.39
2018-09-20T00:48:03.236Z,5.40
2018-09-20T00:49:03.709Z,5.40
2018-09-20T00:50:04.181Z,5.40
2018-09-20T00:51:04.651Z,5.38
2018-09-20T00:52:05.124Z,5.36
2018-09-20T00:53:05.596Z,5.34
2018-09-20T00:54:06.069Z,5.34
2018-09-20T00:55:06.540Z,5.30
2018-09-20T00:56:07.011Z,5.27
2018-09-20T00:57:07.483Z,5.27
2018-09-20T00:58:07.954Z,5.30
2018-09-20T00:59:08.425Z,5.28
2018-09-20T01:00:08.895Z,5.26
2018-09-20T01:01:09.367Z,5.23
2018-09-20T01:02:09.844Z,5.22
2018-09-20T01:03:10.307Z,5.22
2018-09-20T01:04:10.780Z,5.24
2018-09-20T01:05:11.248Z,5.24
2018-09-20T01:06:11.720Z,5.26
2018-09-20T01:07:12.189Z,5.28
2018-09-20T01:08:12.659Z,5.28
2018-09-20T01:09:13.136Z,5.28
2018-09-20T01:10:13.602Z,5.28
2018-09-20T01:11:14.070Z,5.26
2018-09-20T01:12:14.542Z,5.25
2018-09-20T01:13:15.013Z,5.27
2018-09-20T01:14:15.482Z,5.28
2018-09-20T01:15:15.954Z,5.28
2018-09-20T01:16:16.424Z,5.27
2018-09-20T01:17:16.897Z,5.24
2018-09-20T01:18:17.366Z,5.24
2018-09-20T01:19:17.840Z,5.25
2018-09-20T01:20:18.310Z,5.25
2018-09-20T01:21:18.782Z,5.26
2018-09-20T01:22:19.256Z,5.28
2018-09-20T01:23:19.725Z,5.26
2018-09-20T01:24:20.197Z,5.24
2018-09-20T01:25:20.671Z,5.20
2018-09-20T01:26:21.143Z,5.16
2018-09-20T01:27:21.614Z,5.12
2018-09-20T01:28:22.090Z,5.10
2018-09-20T01:29:22.559Z,5.10
2018-09-20T01:30:23.032Z,5.06
2018-09-20T01:31:23.507Z,5.04
2018-09-20T01:32:23.980Z,5.06
2018-09-20T01:33:24.455Z,5.04
2018-09-20T01:34:24.927Z,5.03
2018-09-20T01:35:25.407Z,5.04
2018-09-20T01:36:25.875Z,5.04
2018-09-20T01:37:26.349Z,5.06
2018-09-20T01:38:26.824Z,5.05
2018-09-20T01:39:27.302Z,5.08
2018-09-20T01:40:27.773Z,5.08
2018-09-20T01:41:28.247Z,5.09
2018-09-20T01:42:28.720Z,5.10
2018-09-20T01:43:29.193Z,5.08
2018-09-20T01:44:29.667Z,5.06
2018-09-20T01:45:30.140Z,5.06
2018-09-20T01:46:30.619Z,5.06
2018-09-20T01:47:31.090Z,5.08
2018-09-20T01:48:31.564Z,5.08
2018-09-20T01:49:32.037Z,5.07
2018-09-20T01:50:32.510Z,5.05
2018-09-20T01:51:32.987Z,5.04
2018-09-20T01:52:33.458Z,5.02
2018-09-20T01:53:33.932Z,5.03
2018-09-20T01:54:34.406Z,5.02
2018-09-20T01:55:34.877Z,4.99
2018-09-20T01:56:35.350Z,4.99
2018-09-20T01:57:35.822Z,4.99
2018-09-20T01:58:36.295Z,4.98
2018-09-20T01:59:36.766Z,4.96
2018-09-20T02:00:37.243Z,4.94
2018-09-20T02:01:37.740Z,4.93
2018-09-20T02:02:38.388Z,4.90
2018-09-20T02:03:38.654Z,4.86
2018-09-20T02:04:39.132Z,4.83
2018-09-20T02:05:39.809Z,4.83
2018-09-20T02:06:40.082Z,4.81
2018-09-20T02:07:40.539Z,4.77
2018-09-20T02:08:41.010Z,4.72
2018-09-20T02:09:41.483Z,4.72
2018-09-20T02:10:41.954Z,4.68
2018-09-20T02:11:42.422Z,4.69
2018-09-20T02:12:42.892Z,4.69
2018-09-20T02:13:43.366Z,4.69
2018-09-20T02:14:43.835Z,4.68
2018-09-20T02:15:44.305Z,4.67
2018-09-20T02:16:44.774Z,4.66
2018-09-20T02:17:45.244Z,4.64
2018-09-20T02:18:45.719Z,4.64
2018-09-20T02:19:46.184Z,4.60
2018-09-20T02:20:46.656Z,4.60
2018-09-20T02:21:47.126Z,4.62
2018-09-20T02:22:47.602Z,4.60
2018-09-20T02:23:48.068Z,4.60
2018-09-20T02:24:48.538Z,4.60
2018-09-20T02:25:49.012Z,4.58
2018-09-20T02:26:49.479Z,4.57
2018-09-20T02:27:49.949Z,4.54
2018-09-20T02:28:50.424Z,4.52
2018-09-20T02:29:50.897Z,4.48
2018-09-20T02:30:51.364Z,4.52
2018-09-20T02:31:51.836Z,4.54
2018-09-20T02:32:52.307Z,4.56
2018-09-20T02:33:52.786Z,4.58
2018-09-20T02:34:53.251Z,4.60
2018-09-20T02:35:53.726Z,4.63
2018-09-20T02:36:54.194Z,4.62
2018-09-20T02:37:54.668Z,4.60
2018-09-20T02:38:55.142Z,4.60
2018-09-20T02:39:55.617Z,4.60
2018-09-20T02:40:56.085Z,4.64
2018-09-20T02:41:56.558Z,4.66
2018-09-20T02:42:57.033Z,4.67
2018-09-20T02:43:57.504Z,4.68
2018-09-20T02:44:57.980Z,4.64
2018-09-20T02:45:58.454Z,4.64
2018-09-20T02:46:58.928Z,4.64
2018-09-20T02:47:59.398Z,4.64
2018-09-20T02:48:59.873Z,4.62
2018-09-20T02:50:00.346Z,4.63
2018-09-20T02:51:00.822Z,4.63
2018-09-20T02:52:01.296Z,4.68
2018-09-20T02:53:01.769Z,4.73
2018-09-20T02:54:02.244Z,4.77
2018-09-20T02:55:02.723Z,4.76
2018-09-20T02:56:03.191Z,4.74
2018-09-20T02:57:03.665Z,4.74
2018-09-20T02:58:04.140Z,4.78
2018-09-20T02:59:04.690Z,4.78
2018-09-20T03:00:05.086Z,4.76
2018-09-20T03:01:05.559Z,4.78
2018-09-20T03:02:06.034Z,4.78
2018-09-20T03:03:06.509Z,4.76
2018-09-20T03:04:06.981Z,4.76
2018-09-20T03:05:07.452Z,4.76
2018-09-20T03:06:07.925Z,4.76
2018-09-20T03:07:08.400Z,4.75
2018-09-20T03:08:08.870Z,4.73
2018-09-20T03:09:09.344Z,4.72
2018-09-20T03:10:09.817Z,4.72
2018-09-20T03:11:10.290Z,4.69
2018-09-20T03:12:10.763Z,4.68
2018-09-20T03:13:11.232Z,4.66
2018-09-20T03:14:11.703Z,4.64
2018-09-20T03:15:12.175Z,4.69
2018-09-20T03:16:12.644Z,4.76
2018-09-20T03:17:13.116Z,4.79
2018-09-20T03:18:13.589Z,4.84
2018-09-20T03:19:14.060Z,4.90
2018-09-20T03:20:14.529Z,4.92
2018-09-20T03:21:15.004Z,5.00
2018-09-20T03:22:15.470Z,5.04
2018-09-20T03:23:15.940Z,5.07
2018-09-20T03:24:16.410Z,5.12
2018-09-20T03:25:16.881Z,5.18
2018-09-20T03:26:17.351Z,5.23
2018-09-20T03:27:17.824Z,5.28
2018-09-20T03:28:18.291Z,5.34
2018-09-20T03:29:18.760Z,5.40
2018-09-20T03:30:19.402Z,5.40
2018-09-20T03:31:19.703Z,5.42
2018-09-20T03:32:20.172Z,5.34
2018-09-20T03:33:20.643Z,5.27
2018-09-20T03:34:21.114Z,5.20
2018-09-20T03:35:21.583Z,5.14
2018-09-20T03:36:22.059Z,5.14
2018-09-20T03:37:22.524Z,5.19
2018-09-20T03:38:22.998Z,5.19
2018-09-20T03:39:23.470Z,5.16
2018-09-20T03:40:23.939Z,5.09
2018-09-20T03:41:24.408Z,5.06
2018-09-20T03:42:24.879Z,5.08
2018-09-20T03:43:25.351Z,5.10
2018-09-20T03:44:25.822Z,5.16
2018-09-20T03:45:26.294Z,5.14
2018-09-20T03:46:26.767Z,5.10
2018-09-20T03:47:27.238Z,5.01
2018-09-20T03:48:27.710Z,4.94
2018-09-20T03:49:28.184Z,4.84
2018-09-20T03:50:28.656Z,4.78
2018-09-20T03:51:29.136Z,4.70
2018-09-20T03:52:29.601Z,4.63
2018-09-20T03:53:30.074Z,4.56
2018-09-20T03:54:30.547Z,4.56
2018-09-20T03:55:31.021Z,4.58
2018-09-20T03:56:31.493Z,4.55
2018-09-20T03:57:31.969Z,4.48
2018-09-20T03:58:32.442Z,4.47
2018-09-20T03:59:32.914Z,4.60
2018-09-20T04:00:33.389Z,4.76
2018-09-20T04:01:33.863Z,4.82
2018-09-20T04:02:34.337Z,4.85
2018-09-20T04:03:35.467Z,4.92
2018-09-20T04:04:35.285Z,4.87
2018-09-20T04:05:35.760Z,4.79
2018-09-20T04:06:36.232Z,4.68
2018-09-20T04:07:36.708Z,4.58
2018-09-20T04:08:37.180Z,4.50
2018-09-20T04:09:37.672Z,4.41
2018-09-20T04:10:38.126Z,4.30
2018-09-20T04:11:38.601Z,4.24
2018-09-20T04:12:39.072Z,4.18
2018-09-20T04:13:39.547Z,4.15
2018-09-20T04:14:40.021Z,4.10
2018-09-20T04:15:40.494Z,4.06
2018-09-20T04:16:40.965Z,4.05
2018-09-20T04:17:41.437Z,4.02
2018-09-20T04:18:41.909Z,4.00
2018-09-20T04:19:42.384Z,3.97
2018-09-20T04:20:42.853Z,3.98
2018-09-20T04:21:43.326Z,3.95
2018-09-20T04:22:43.797Z,3.92
2018-09-20T04:23:44.271Z,3.94
2018-09-20T04:24:44.739Z,3.98
2018-09-20T04:25:45.213Z,3.98
2018-09-20T04:26:45.684Z,4.00
2018-09-20T04:27:46.153Z,4.01
2018-09-20T04:28:47.284Z,4.00
2018-09-20T04:29:47.096Z,3.99
2018-09-20T04:30:47.566Z,3.96
2018-09-20T04:31:48.049Z,3.96
2018-09-20T04:32:48.505Z,3.96
2018-09-20T04:33:48.983Z,3.98
2018-09-20T04:34:49.446Z,3.99
2018-09-20T04:35:49.918Z,4.02
2018-09-20T04:36:50.385Z,4.09
2018-09-20T04:37:50.857Z,4.20
2018-09-20T04:38:51.329Z,4.34
2018-09-20T04:39:51.798Z,4.54
2018-09-20T04:40:52.270Z,4.74
2018-09-20T04:41:52.738Z,4.96
2018-09-20T04:42:53.235Z,5.09
2018-09-20T04:43:53.684Z,5.16
2018-09-20T04:44:54.150Z,5.19
2018-09-20T04:45:54.622Z,5.20
2018-09-20T04:46:55.095Z,5.21
2018-09-20T04:47:55.563Z,5.16
2018-09-20T04:48:56.033Z,5.08
2018-09-20T04:49:56.505Z,5.02
2018-09-20T04:50:56.974Z,4.99
2018-09-20T04:51:57.448Z,4.94
2018-09-20T04:52:57.919Z,4.90
2018-09-20T04:53:58.391Z,4.86
2018-09-20T04:54:58.862Z,4.80
2018-09-20T04:55:59.334Z,4.76
2018-09-20T04:56:59.806Z,4.75
2018-09-20T04:58:00.277Z,4.78
2018-09-20T04:59:01.004Z,4.79
2018-09-20T05:00:01.269Z,4.78
2018-09-20T05:01:01.695Z,4.80
2018-09-20T05:02:02.168Z,4.87
2018-09-20T05:03:02.843Z,4.94
2018-09-20T05:04:03.114Z,4.98
2018-09-20T05:05:03.589Z,5.04
2018-09-20T05:06:04.061Z,5.08
2018-09-20T05:07:04.534Z,5.14
2018-09-20T05:08:05.012Z,5.20
2018-09-20T05:09:05.482Z,5.20
2018-09-20T05:10:05.955Z,5.22
2018-09-20T05:11:06.431Z,5.22
2018-09-20T05:12:06.907Z,5.16
2018-09-20T05:13:07.378Z,5.16
2018-09-20T05:14:07.852Z,5.16
2018-09-20T05:15:08.329Z,5.14
2018-09-20T05:16:08.802Z,5.11
2018-09-20T05:17:09.273Z,5.12
2018-09-20T05:18:09.746Z,5.16
2018-09-20T05:19:10.425Z,5.32
2018-09-20T05:20:10.705Z,5.46
2018-09-20T05:21:11.166Z,5.47
2018-09-20T05:22:11.639Z,5.49
2018-09-20T05:23:12.114Z,5.55
2018-09-20T05:24:12.588Z,5.60
2018-09-20T05:25:13.059Z,5.62
2018-09-20T05:26:13.530Z,5.64
2018-09-20T05:27:14.003Z,5.71
2018-09-20T05:28:14.503Z,5.79
2018-09-20T05:29:14.949Z,5.82
2018-09-20T05:30:15.420Z,5.82
2018-09-20T05:31:15.893Z,5.82
2018-09-20T05:32:16.363Z,5.83
2018-09-20T05:33:16.853Z,5.84
2018-09-20T05:34:17.306Z,5.86
2018-09-20T05:35:17.789Z,5.88
2018-09-20T05:36:18.249Z,5.91
2018-09-20T05:37:18.719Z,5.91
2018-09-20T05:38:19.191Z,5.96
2018-09-20T05:39:19.713Z,5.97
2018-09-20T05:40:20.133Z,6.00
2018-09-20T05:41:20.603Z,6.02
2018-09-20T05:42:21.073Z,6.02
2018-09-20T05:43:21.563Z,6.06
2018-09-20T05:44:22.012Z,6.09
2018-09-20T05:45:22.483Z,6.13
2018-09-20T05:46:22.953Z,6.18
2018-09-20T05:47:23.423Z,6.21
2018-09-20T05:48:23.894Z,6.28
2018-09-20T05:49:24.365Z,6.32
2018-09-20T05:50:24.833Z,6.34
2018-09-20T05:51:25.308Z,6.36
2018-09-20T05:52:25.775Z,6.40
2018-09-20T05:53:26.245Z,6.43
2018-09-20T05:54:26.720Z,6.42
2018-09-20T05:55:27.192Z,6.42
2018-09-20T05:56:27.661Z,6.46
2018-09-20T05:57:28.129Z,6.50
2018-09-20T05:58:28.600Z,6.56
2018-09-20T05:59:29.071Z,6.61
2018-09-20T06:00:29.542Z,6.64
2018-09-20T06:01:30.013Z,6.71
2018-09-20T06:02:30.485Z,6.74
2018-09-20T06:03:30.959Z,6.80
2018-09-20T06:04:31.431Z,6.85
2018-09-20T06:05:31.967Z,6.90
2018-09-20T06:06:32.373Z,6.94
2018-09-20T06:07:32.849Z,6.97
2018-09-20T06:08:33.321Z,7.02
2018-09-20T06:09:33.794Z,7.08
2018-09-20T06:10:34.266Z,7.12
2018-09-20T06:11:34.739Z,7.14
2018-09-20T06:12:35.213Z,7.16
2018-09-20T06:13:35.686Z,7.18
2018-09-20T06:14:36.160Z,7.18
2018-09-20T06:15:36.632Z,7.21
2018-09-20T06:16:37.112Z,7.22
2018-09-20T06:17:37.582Z,7.23
2018-09-20T06:18:38.056Z,7.28
2018-09-20T06:19:38.536Z,7.34
2018-09-20T06:20:39.003Z,7.43
2018-09-20T06:21:39.485Z,7.51
2018-09-20T06:22:39.955Z,7.58
2018-09-20T06:23:40.436Z,7.63
2018-09-20T06:24:41.107Z,7.59
2018-09-20T06:25:41.375Z,7.59
2018-09-20T06:26:41.848Z,7.58
2018-09-20T06:27:42.334Z,7.62
2018-09-20T06:28:42.797Z,7.66
2018-09-20T06:29:43.274Z,7.69
2018-09-20T06:30:43.748Z,7.71
2018-09-20T06:31:44.220Z,7.72
2018-09-20T06:32:44.691Z,7.74
2018-09-20T06:33:45.168Z,7.76
2018-09-20T06:34:45.666Z,7.78
2018-09-20T06:35:46.112Z,7.79
2018-09-20T06:36:46.629Z,7.77
2018-09-20T06:37:47.060Z,7.74
2018-09-20T06:38:47.531Z,7.73
2018-09-20T06:39:48.006Z,7.70
2018-09-20T06:40:48.492Z,7.66
2018-09-20T06:41:48.949Z,7.66
2018-09-20T06:42:49.419Z,7.62
2018-09-20T06:43:50.094Z,7.58
2018-09-20T06:44:50.365Z,7.58
2018-09-20T06:45:50.837Z,7.60
2018-09-20T06:46:51.308Z,7.63
2018-09-20T06:47:51.783Z,7.62
2018-09-20T06:48:52.251Z,7.63
2018-09-20T06:49:52.722Z,7.66
2018-09-20T06:50:53.194Z,7.70
2018-09-20T06:51:53.663Z,7.70
2018-09-20T06:52:54.137Z,7.74
2018-09-20T06:53:54.604Z,7.76
2018-09-20T06:54:55.078Z,7.71
2018-09-20T06:55:55.547Z,7.67
2018-09-20T06:56:56.019Z,7.56
2018-09-20T06:57:56.489Z,7.52
2018-09-20T06:58:56.959Z,7.58
2018-09-20T06:59:57.430Z,7.58
2018-09-20T07:00:57.903Z,7.62
2018-09-20T07:01:58.372Z,7.70
2018-09-20T07:02:58.853Z,7.70
2018-09-20T07:03:59.313Z,7.70
2018-09-20T07:04:59.783Z,7.73
2018-09-20T07:06:00.255Z,7.79
2018-09-20T07:07:00.727Z,7.88
2018-09-20T07:08:01.200Z,8.01
2018-09-20T07:09:01.669Z,8.10
2018-09-20T07:10:02.140Z,8.19
2018-09-20T07:11:02.612Z,8.29
2018-09-20T07:12:03.084Z,8.34
2018-09-20T07:13:03.557Z,8.37
2018-09-20T07:14:04.029Z,8.44
2018-09-20T07:15:04.503Z,8.53
2018-09-20T07:16:04.974Z,8.55
2018-09-20T07:17:05.448Z,8.49
2018-09-20T07:18:05.919Z,8.46
2018-09-20T07:19:06.400Z,8.50
2018-09-20T07:20:06.866Z,8.52
2018-09-20T07:21:07.341Z,8.48
2018-09-20T07:22:07.815Z,8.46
2018-09-20T07:23:08.289Z,8.44
2018-09-20T07:24:08.765Z,8.43
2018-09-20T07:25:09.244Z,8.45
2018-09-20T07:26:09.712Z,8.44
2018-09-20T07:27:10.186Z,8.48
2018-09-20T07:28:10.663Z,8.54
2018-09-20T07:29:11.137Z,8.58
2018-09-20T07:30:11.610Z,8.60
2018-09-20T07:31:12.088Z,8.63
2018-09-20T07:32:12.561Z,8.58
2018-09-20T07:33:13.039Z,8.50
2018-09-20T07:34:13.511Z,8.54
2018-09-20T07:35:14.743Z,8.52
2018-09-20T07:36:14.462Z,8.40
2018-09-20T07:37:14.936Z,8.36
2018-09-20T07:38:15.411Z,8.18
2018-09-20T07:39:15.886Z,8.12
2018-09-20T07:40:16.362Z,8.10
2018-09-20T07:41:16.838Z,8.23
2018-09-20T07:42:17.308Z,8.30
2018-09-20T07:43:17.784Z,8.23
2018-09-20T07:44:18.259Z,8.19
2018-09-20T07:45:18.734Z,8.29
2018-09-20T07:46:19.208Z,8.38
2018-09-20T07:47:19.679Z,8.42
2018-09-20T07:48:20.154Z,8.44
2018-09-20T07:49:20.629Z,8.51
2018-09-20T07:50:21.101Z,8.62
2018-09-20T07:51:21.575Z,8.72
2018-09-20T07:52:22.051Z,8.80
2018-09-20T07:53:22.522Z,8.90
2018-09-20T07:54:22.998Z,8.89
2018-09-20T07:55:23.469Z,8.75
2018-09-20T07:56:23.943Z,8.73
2018-09-20T07:57:24.416Z,8.70
2018-09-20T07:58:24.888Z,8.73
2018-09-20T07:59:25.361Z,8.74
2018-09-20T08:00:25.836Z,8.74
2018-09-20T08:01:26.357Z,8.65
2018-09-20T08:02:26.782Z,8.66
2018-09-20T08:03:27.255Z,8.78
2018-09-20T08:04:27.725Z,8.90
2018-09-20T08:05:28.199Z,8.86
2018-09-20T08:06:28.670Z,8.91
2018-09-20T08:07:29.144Z,9.07
2018-09-20T08:08:29.616Z,9.09
2018-09-20T08:09:30.089Z,9.16
2018-09-20T08:10:30.563Z,9.27
2018-09-20T08:11:31.034Z,9.28
2018-09-20T08:12:31.506Z,9.34
2018-09-20T08:13:31.980Z,9.44
2018-09-20T08:14:32.454Z,9.28
2018-09-20T08:15:32.934Z,9.30
2018-09-20T08:16:33.399Z,9.32
2018-09-20T08:17:33.870Z,9.43
2018-09-20T08:18:34.343Z,9.42
2018-09-20T08:19:34.818Z,9.14
2018-09-20T08:20:35.288Z,8.86
2018-09-20T08:21:35.827Z,8.65
2018-09-20T08:22:36.232Z,8.54
2018-09-20T08:23:36.709Z,8.62
2018-09-20T08:24:37.179Z,8.74
2018-09-20T08:25:37.651Z,8.94
2018-09-20T08:26:38.124Z,9.12
2018-09-20T08:27:38.654Z,8.99
2018-09-20T08:28:39.075Z,8.83
2018-09-20T08:29:39.545Z,8.69
2018-09-20T08:30:40.014Z,8.76
2018-09-20T08:31:40.486Z,8.92
2018-09-20T08:32:40.958Z,9.14
2018-09-20T08:33:41.431Z,9.28
2018-09-20T08:34:41.902Z,9.38
2018-09-20T08:35:42.679Z,9.54
2018-09-20T08:36:42.847Z,9.61
2018-09-20T08:37:43.361Z,9.59
2018-09-20T08:38:43.792Z,9.55
2018-09-20T08:39:44.264Z,9.72
2018-09-20T08:40:44.736Z,9.82
2018-09-20T08:41:45.208Z,9.82
2018-09-20T08:42:45.678Z,9.94
2018-09-20T08:43:46.156Z,9.94
2018-09-20T08:44:46.622Z,9.76
2018-09-20T08:45:47.094Z,9.85
2018-09-20T08:46:47.566Z,10.02
2018-09-20T08:47:48.037Z,10.12
2018-09-20T08:48:48.508Z,10.16
2018-09-20T08:49:48.982Z,10.20
2018-09-20T08:50:49.455Z,10.27
2018-09-20T08:51:49.924Z,10.27
2018-09-20T08:52:50.437Z,10.26
2018-09-20T08:53:50.868Z,10.24
2018-09-20T08:54:51.336Z,10.14
2018-09-20T08:55:51.809Z,10.00
2018-09-20T08:56:52.325Z,9.77
2018-09-20T08:57:52.753Z,9.60
2018-09-20T08:58:53.223Z,9.50
2018-09-20T08:59:53.695Z,9.46
2018-09-20T09:00:54.168Z,9.60
2018-09-20T09:01:54.640Z,9.68
2018-09-20T09:02:55.112Z,9.68
2018-09-20T09:03:55.584Z,9.64
2018-09-20T09:04:56.057Z,9.63
2018-09-20T09:05:56.531Z,9.66
2018-09-20T09:06:57.003Z,9.62
2018-09-20T09:07:57.476Z,9.54
2018-09-20T09:08:57.950Z,9.42
2018-09-20T09:09:58.425Z,9.46
2018-09-20T09:10:58.901Z,9.61
2018-09-20T09:11:59.385Z,9.73
2018-09-20T09:12:59.846Z,9.74
2018-09-20T09:14:00.322Z,9.68
2018-09-20T09:15:00.800Z,9.79
2018-09-20T09:16:01.371Z,9.94
2018-09-20T09:17:01.748Z,9.96
2018-09-20T09:18:02.226Z,10.08
2018-09-20T09:19:02.697Z,10.12
2018-09-20T09:20:03.176Z,10.15
2018-09-20T09:21:03.649Z,10.25
2018-09-20T09:22:04.131Z,10.19
2018-09-20T09:23:04.601Z,10.25
2018-09-20T09:24:05.077Z,10.43
2018-09-20T09:25:05.554Z,10.42
2018-09-20T09:26:06.029Z,10.42
2018-09-20T09:27:06.507Z,10.46
2018-09-20T09:28:06.981Z,10.58
2018-09-20T09:29:07.458Z,10.57
2018-09-20T09:30:07.936Z,10.59
2018-09-20T09:31:08.411Z,10.72
2018-09-20T09:32:08.887Z,10.72
2018-09-20T09:33:09.362Z,10.86
2018-09-20T09:34:09.865Z,10.98
2018-09-20T09:35:10.316Z,10.84
2018-09-20T09:36:10.790Z,10.74
2018-09-20T09:37:11.267Z,10.63
2018-09-20T09:38:11.744Z,10.64
2018-09-20T09:39:12.218Z,10.59
2018-09-20T09:40:12.693Z,10.54
2018-09-20T09:41:13.170Z,10.48
2018-09-20T09:42:13.664Z,10.54
2018-09-20T09:43:14.123Z,10.64
2018-09-20T09:44:14.596Z,10.81
2018-09-20T09:45:15.073Z,10.91
2018-09-20T09:46:15.548Z,11.01
2018-09-20T09:47:16.025Z,11.14
2018-09-20T09:48:16.587Z,11.28
2018-09-20T09:49:16.980Z,11.39
2018-09-20T09:50:17.452Z,11.36
2018-09-20T09:51:17.925Z,11.16
2018-09-20T09:52:18.400Z,11.11
2018-09-20T09:53:18.872Z,11.14
2018-09-20T09:54:19.383Z,11.20
2018-09-20T09:55:19.825Z,11.16
2018-09-20T09:56:20.299Z,11.09
2018-09-20T09:57:20.775Z,11.13
2018-09-20T09:58:21.251Z,11.22
2018-09-20T09:59:21.725Z,11.40
2018-09-20T10:00:22.199Z,11.52
2018-09-20T10:01:22.673Z,11.44
2018-09-20T10:02:23.159Z,11.46
2018-09-20T10:03:23.625Z,11.55
2018-09-20T10:04:24.098Z,11.70
2018-09-20T10:05:24.573Z,11.79
2018-09-20T10:06:25.046Z,11.75
2018-09-20T10:07:25.541Z,11.78
2018-09-20T10:08:25.997Z,11.79
2018-09-20T10:09:26.477Z,11.74
2018-09-20T10:10:26.946Z,11.60
2018-09-20T10:11:27.419Z,11.56
2018-09-20T10:12:27.894Z,11.50
2018-09-20T10:13:28.405Z,11.49
2018-09-20T10:14:28.843Z,11.50
2018-09-20T10:15:29.317Z,11.18
2018-09-20T10:16:29.791Z,10.98
2018-09-20T10:17:30.267Z,10.97
2018-09-20T10:18:30.742Z,10.89
2018-09-20T10:19:31.216Z,10.84
2018-09-20T10:20:31.689Z,10.82
2018-09-20T10:21:32.164Z,10.81
2018-09-20T10:22:32.640Z,11.02
2018-09-20T10:23:33.112Z,11.13
2018-09-20T10:24:33.591Z,11.00
2018-09-20T10:25:34.061Z,10.93
2018-09-20T10:26:34.537Z,11.04
2018-09-20T10:27:35.010Z,11.08
2018-09-20T10:28:35.484Z,11.11
2018-09-20T10:29:35.958Z,11.01
2018-09-20T10:30:36.436Z,10.94
2018-09-20T10:31:36.958Z,10.91
2018-09-20T10:32:37.381Z,10.87
2018-09-20T10:33:37.856Z,10.84
2018-09-20T10:34:38.330Z,10.80
2018-09-20T10:35:38.804Z,10.92
2018-09-20T10:36:39.277Z,11.06
2018-09-20T10:37:39.752Z,11.03
2018-09-20T10:38:40.227Z,11.01
2018-09-20T10:39:40.698Z,10.97
2018-09-20T10:40:41.175Z,10.93
2018-09-20T10:41:41.648Z,10.84
2018-09-20T10:42:42.121Z,10.80
2018-09-20T10:43:42.597Z,10.82
2018-09-20T10:44:43.070Z,10.82
2018-09-20T10:45:43.543Z,11.00
2018-09-20T10:46:44.019Z,11.15
2018-09-20T10:47:44.492Z,11.32
2018-09-20T10:48:44.966Z,11.46
2018-09-20T10:49:45.440Z,11.41
2018-09-20T10:50:45.915Z,11.30
2018-09-20T10:51:46.387Z,11.26
2018-09-20T10:52:46.861Z,11.26
2018-09-20T10:53:47.335Z,11.16
2018-09-20T10:54:47.811Z,11.07
2018-09-20T10:55:48.283Z,11.00
2018-09-20T10:56:48.766Z,10.96
2018-09-20T10:57:49.233Z,10.92
2018-09-20T10:58:49.706Z,10.87
2018-09-20T10:59:50.179Z,10.78
2018-09-20T11:00:50.654Z,10.82
2018-09-20T11:01:51.130Z,10.85
2018-09-20T11:02:51.660Z,10.82
2018-09-20T11:03:52.080Z,10.78
2018-09-20T11:04:52.551Z,10.76
2018-09-20T11:05:53.026Z,10.80
2018-09-20T11:06:53.500Z,10.80
2018-09-20T11:07:53.973Z,10.75
2018-09-20T11:08:54.448Z,10.72
2018-09-20T11:09:54.920Z,10.62
2018-09-20T11:10:55.451Z,10.58
2018-09-20T11:11:55.871Z,10.56
2018-09-20T11:12:56.346Z,10.59
2018-09-20T11:13:56.820Z,10.60
2018-09-20T11:14:57.292Z,10.39
2018-09-20T11:15:57.768Z,10.42
2018-09-20T11:16:58.242Z,10.48
2018-09-20T11:17:58.716Z,10.57
2018-09-20T11:18:59.189Z,10.66
2018-09-20T11:19:59.665Z,10.78
2018-09-20T11:21:00.141Z,10.86
2018-09-20T11:22:00.614Z,10.88
2018-09-20T11:23:01.087Z,10.90
2018-09-20T11:24:01.561Z,10.90
2018-09-20T11:25:02.036Z,10.92
2018-09-20T11:26:02.534Z,10.96
2018-09-20T11:27:02.986Z,10.94
2018-09-20T11:28:03.460Z,10.95
2018-09-20T11:29:03.933Z,10.92
2018-09-20T11:30:04.408Z,10.98
2018-09-20T11:31:04.882Z,11.04
2018-09-20T11:32:05.357Z,11.14
2018-09-20T11:33:05.833Z,11.07
2018-09-20T11:34:06.305Z,10.83
2018-09-20T11:35:06.781Z,10.77
2018-09-20T11:36:07.410Z,10.82
2018-09-20T11:37:07.729Z,10.78
2018-09-20T11:38:08.204Z,10.78
2018-09-20T11:39:08.682Z,10.70
2018-09-20T11:40:09.152Z,10.74
2018-09-20T11:41:09.628Z,10.68
2018-09-20T11:42:10.104Z,10.45
2018-09-20T11:43:10.576Z,10.39
2018-09-20T11:44:11.051Z,10.33
2018-09-20T11:45:11.526Z,10.39
2018-09-20T11:46:12.001Z,10.47
2018-09-20T11:47:12.475Z,10.46
2018-09-20T11:48:12.950Z,10.28
2018-09-20T11:49:13.426Z,10.26
2018-09-20T11:50:13.900Z,10.18
2018-09-20T11:51:14.374Z,9.93
2018-09-20T11:52:14.848Z,9.86
2018-09-20T11:53:15.325Z,9.90
2018-09-20T11:54:15.799Z,10.12
2018-09-20T11:55:16.274Z,10.16
2018-09-20T11:56:16.748Z,10.13
2018-09-20T11:57:17.224Z,10.04
2018-09-20T11:58:17.698Z,9.88
2018-09-20T11:59:18.174Z,9.90
2018-09-20T12:00:18.648Z,10.02
2018-09-20T12:01:19.125Z,10.17
2018-09-20T12:02:19.599Z,10.29
2018-09-20T12:03:20.075Z,10.41
2018-09-20T12:04:20.548Z,10.64
2018-09-20T12:05:21.024Z,10.81
2018-09-20T12:06:21.500Z,10.88
2018-09-20T12:07:21.974Z,10.82
2018-09-20T12:08:22.455Z,10.74
2018-09-20T12:09:22.924Z,10.72
2018-09-20T12:10:23.401Z,10.62
2018-09-20T12:11:23.874Z,10.43
2018-09-20T12:12:24.350Z,10.29
2018-09-20T12:13:24.826Z,10.14
2018-09-20T12:14:25.342Z,9.84
2018-09-20T12:15:25.781Z,9.83
2018-09-20T12:16:26.252Z,9.51
2018-09-20T12:17:26.726Z,9.36
2018-09-20T12:18:27.201Z,9.60
2018-09-20T12:19:27.881Z,9.71
2018-09-20T12:20:28.153Z,9.84
2018-09-20T12:21:28.631Z,9.95
2018-09-20T12:22:29.105Z,9.97
2018-09-20T12:23:29.580Z,9.75
2018-09-20T12:24:30.054Z,9.70
2018-09-20T12:25:30.530Z,9.68
2018-09-20T12:26:31.006Z,9.66
2018-09-20T12:27:31.485Z,9.58
2018-09-20T12:28:31.957Z,9.28
2018-09-20T12:29:32.435Z,9.38
2018-09-20T12:30:32.912Z,9.48
2018-09-20T12:31:33.407Z,9.60
2018-09-20T12:32:33.861Z,9.62
2018-09-20T12:33:34.338Z,9.67
2018-09-20T12:34:34.812Z,9.76
2018-09-20T12:35:35.358Z,9.90
2018-09-20T12:36:35.764Z,10.15
2018-09-20T12:37:36.239Z,10.38
2018-09-20T12:38:36.719Z,10.53
2018-09-20T12:39:37.195Z,10.68
2018-09-20T12:40:37.667Z,10.74
2018-09-20T12:41:38.146Z,10.67
2018-09-20T12:42:38.664Z,10.69
2018-09-20T12:43:39.096Z,10.76
2018-09-20T12:44:39.572Z,10.90
2018-09-20T12:45:40.049Z,11.02
2018-09-20T12:46:40.524Z,11.13
2018-09-20T12:47:41.001Z,11.14
2018-09-20T12:48:41.477Z,11.02
2018-09-20T12:49:41.952Z,10.69
2018-09-20T12:50:42.429Z,10.64
2018-09-20T12:51:42.910Z,10.62
2018-09-20T12:52:43.382Z,10.36
2018-09-20T12:53:43.857Z,10.18
2018-09-20T12:54:44.362Z,10.25
2018-09-20T12:55:44.812Z,10.21
2018-09-20T12:56:45.287Z,10.14
2018-09-20T12:57:45.765Z,10.04
2018-09-20T12:58:46.245Z,10.05
2018-09-20T12:59:46.717Z,10.12
2018-09-20T13:00:47.193Z,10.13
2018-09-20T13:01:47.671Z,10.12
2018-09-20T13:02:48.349Z,10.12
2018-09-20T13:03:48.625Z,9.98
2018-09-20T13:04:49.098Z,10.08
2018-09-20T13:05:49.576Z,10.19
2018-09-20T13:06:50.051Z,10.25
2018-09-20T13:07:50.532Z,10.38
2018-09-20T13:08:51.006Z,10.34
2018-09-20T13:09:51.483Z,10.30
2018-09-20T13:10:51.959Z,10.14
2018-09-20T13:11:52.437Z,10.01
2018-09-20T13:12:53.130Z,10.18
2018-09-20T13:13:53.389Z,10.24
2018-09-20T13:14:53.868Z,10.24
2018-09-20T13:15:54.344Z,10.24
2018-09-20T13:16:54.821Z,10.39
2018-09-20T13:17:55.297Z,10.32